Terminal Aerodrome Forecast
Issued by NWS Omaha/Valley, NE

Current Version | Previous Version | Text Only | Print | Product List | Glossary On
Versions: 1 2 3 4 5 6 7 8 9 10 11 12 13 14 15 16 17 18 19 20 21 22 23 24 25 26 27 28 29 30 31 32 33 34 35 36 37 38 39 40 41 42 43
000
FTUS43 KOAX 191316 AAA
TAFLNK
TAF AMD
KLNK 191316Z 1913/2012 19012KT P6SM OVC012
     FM191400 19015G20KT P6SM OVC012
      TEMPO 1916/1918 P6SM SCT012
     FM191800 20017G24KT P6SM SCT040
     FM200000 19014KT P6SM SKC
     FM201100 24005KT P6SM BKN250=

USA.gov is the U.S. government's official web portal to all federal, state and local government web resources and services.